Sea Reliance — WEOB — position and weather

sailwx.info

Track history (hours):
 
Tides and Currents Weather Stations Pressure Air Temp Water Temp Dewpoint Dewpoint Depression Visibility Wind Speed Wind Dir Waves Ship Positions

Sea Reliance

Owner: Intrepid Ship Management, Seattle, WA. More information available from US FCC via Universal Licensing System and Coast Guard Vessel Documentation Center.

Last reported at 2018-Feb-19 12:01 UTC. Time now 2018-Feb-19 12:08 UTC.
Position N 33°41' W 119°04'.

Type: Ship. MMSI: 369567000.

Date/timePositionNaut miles runAvg speedWind from/ knotsBaromVisibWave heightAir tempDewpointWater temp
2018-Feb-19 12:01N 33°41' W 119°04'4 8.6
2018-Feb-19 11:30N 33°41' W 118°59'4 8.4
2018-Feb-19 11:01N 33°40' W 118°54'4 8.6
2018-Feb-19 10:30N 33°40' W 118°49'5 8.9
2018-Feb-19 10:00N 33°39' W 118°44'24 9.5
2018-Feb-19 07:31N 33°40' W 118°15'3 6.9
2018-Feb-19 07:00N 33°44' W 118°16'2 3.1
2018-Feb-19 06:30N 33°45' W 118°17'0 0.0
2018-Feb-19 06:00N 33°45' W 118°17'0 0.0
2018-Feb-19 05:30N 33°45' W 118°17'0 0.0
2018-Feb-19 04:59N 33°45' W 118°17'0 0.0
2018-Feb-19 04:29N 33°45' W 118°17'0 0.0
2018-Feb-19 03:59N 33°45' W 118°17'0 0.0
2018-Feb-19 03:26N 33°45' W 118°17'0 0.0
2018-Feb-19 02:59N 33°45' W 118°17'0 0.0
2018-Feb-19 02:26N 33°45' W 118°17'0 0.0
2018-Feb-19 01:59N 33°45' W 118°17'0 0.0
2018-Feb-19 01:29N 33°45' W 118°17'0 0.0
2018-Feb-19 00:59N 33°45' W 118°17'0 0.0
2018-Feb-19 00:29N 33°45' W 118°17'0 0.0
2018-Feb-18 23:59N 33°45' W 118°17'0 0.0
2018-Feb-18 23:29N 33°45' W 118°17'0 0.0
2018-Feb-18 22:59N 33°45' W 118°17'0 0.0
2018-Feb-18 22:29N 33°45' W 118°17'0 0.0
2018-Feb-18 21:59N 33°45' W 118°17'0 0.0
2018-Feb-18 21:29N 33°45' W 118°17'0 0.0
2018-Feb-18 20:59N 33°45' W 118°17'0 0.0
2018-Feb-18 20:29N 33°45' W 118°17'0 0.0
2018-Feb-18 19:59N 33°45' W 118°17'0 0.0
2018-Feb-18 19:29N 33°45' W 118°17'0 0.0
2018-Feb-18 18:59N 33°45' W 118°17'0 0.0
2018-Feb-18 18:29N 33°45' W 118°17'0 0.0
2018-Feb-18 17:59N 33°45' W 118°17'0 0.0
2018-Feb-18 17:29N 33°45' W 118°17'0 0.0
2018-Feb-18 16:59N 33°45' W 118°17'0 0.0
2018-Feb-18 16:29N 33°45' W 118°17'0 0.0
2018-Feb-18 15:59N 33°45' W 118°17'0 0.0
2018-Feb-18 15:29N 33°45' W 118°17'0 0.0
2018-Feb-18 14:59N 33°45' W 118°17'0 0.0
2018-Feb-18 14:29N 33°45' W 118°17'0 0.0
2018-Feb-18 13:59N 33°45' W 118°17'0 0.0
2018-Feb-18 13:29N 33°45' W 118°17'0 0.0
2018-Feb-18 12:59N 33°45' W 118°17'0 0.0
2018-Feb-18 12:29N 33°45' W 118°17'0 0.0
2018-Feb-18 11:59N 33°45' W 118°17'0 0.0
2018-Feb-18 11:29N 33°45' W 118°17'0 0.0
2018-Feb-18 10:56N 33°45' W 118°17'0 0.0
2018-Feb-18 10:29N 33°45' W 118°17'0 0.0
2018-Feb-18 09:59N 33°45' W 118°17'0 0.0
2018-Feb-18 09:29N 33°45' W 118°17'0 0.0
2018-Feb-18 08:59N 33°45' W 118°17'0 0.0
2018-Feb-18 08:29N 33°45' W 118°17'0 0.0
2018-Feb-18 07:59N 33°45' W 118°17'0 0.0
2018-Feb-18 07:29N 33°45' W 118°17'0 0.0
2018-Feb-18 06:59N 33°45' W 118°17'0 0.0
2018-Feb-18 06:29N 33°45' W 118°17'0 0.0
2018-Feb-18 05:59N 33°45' W 118°17'0 0.0
2018-Feb-18 05:28N 33°45' W 118°17'0 0.0
2018-Feb-18 04:55N 33°45' W 118°17'0 0.0
2018-Feb-18 04:28N 33°45' W 118°17'0 0.0
2018-Feb-18 03:58N 33°45' W 118°17'0 0.1
2018-Feb-18 03:25N 33°45' W 118°17'1 1.5
2018-Feb-18 02:56N 33°45' W 118°16'2 4.0
2018-Feb-18 02:30N 33°43' W 118°16'2 3.7
2018-Feb-18 02:00N 33°43' W 118°14'0 0.0
2018-Feb-18 01:30N 33°43' W 118°14'0 0.0
2018-Feb-18 01:00N 33°43' W 118°14'0 0.0
2018-Feb-18 00:30N 33°43' W 118°14'0 0.0
2018-Feb-18 00:00N 33°43' W 118°14'0 0.0
2018-Feb-17 23:30N 33°43' W 118°14'0 0.1
2018-Feb-17 22:57N 33°43' W 118°14'0 0.0
2018-Feb-17 22:30N 33°43' W 118°14'0 0.0
2018-Feb-17 22:00N 33°43' W 118°14'0 0.1
2018-Feb-17 21:21N 33°43' W 118°14'0 0.1
2018-Feb-17 20:57N 33°43' W 118°14'0 0.1
2018-Feb-17 20:30N 33°43' W 118°14'0 0.1
2018-Feb-17 20:00N 33°43' W 118°14'0 0.1
2018-Feb-17 19:30N 33°43' W 118°14'0 0.1
2018-Feb-17 19:00N 33°43' W 118°14'0 0.0
2018-Feb-17 18:27N 33°43' W 118°14'0 0.0
2018-Feb-17 18:00N 33°43' W 118°14'0 0.0
2018-Feb-17 17:27N 33°43' W 118°14'0 0.0
2018-Feb-17 17:00N 33°43' W 118°14'0 0.0
2018-Feb-17 16:30N 33°43' W 118°14'0 0.0
2018-Feb-17 16:00N 33°43' W 118°14'0 0.1
2018-Feb-17 15:30N 33°43' W 118°14'0 0.0
2018-Feb-17 15:00N 33°43' W 118°14'0 0.1
2018-Feb-17 14:30N 33°43' W 118°14'0 0.0
2018-Feb-17 13:57N 33°43' W 118°14'0 0.0
2018-Feb-17 13:27N 33°43' W 118°14'0 0.0
2018-Feb-17 13:00N 33°43' W 118°14'0 0.0
2018-Feb-17 12:30N 33°43' W 118°14'0 0.0
2018-Feb-17 12:00N 33°43' W 118°14'0 0.0
2018-Feb-17 11:30N 33°43' W 118°14'0 0.0
2018-Feb-17 11:00N 33°43' W 118°14'0 0.0
2018-Feb-17 10:30N 33°43' W 118°14'0 0.0
2018-Feb-17 09:57N 33°43' W 118°14'0 0.0
2018-Feb-17 09:29N 33°43' W 118°14'0 0.0
2018-Feb-17 08:47N 33°43' W 118°14'0 0.1
2018-Feb-17 08:23N 33°43' W 118°14'0 0.1
2018-Feb-17 07:47N 33°43' W 118°14'0 0.0
2018-Feb-17 07:29N 33°43' W 118°14'0 0.1
2018-Feb-17 06:50N 33°43' W 118°14'1 2.5
2018-Feb-17 06:29N 33°43' W 118°15'3 5.4
2018-Feb-17 06:00N 33°45' W 118°16'1 1.2
2018-Feb-17 05:30N 33°46' W 118°16'0 0.0
2018-Feb-17 05:00N 33°46' W 118°16'0 0.0
2018-Feb-17 04:30N 33°46' W 118°16'0 0.0
2018-Feb-17 04:00N 33°46' W 118°16'0 0.0
2018-Feb-17 03:30N 33°46' W 118°16'0 0.0
2018-Feb-17 03:00N 33°46' W 118°16'0 0.0
2018-Feb-17 02:30N 33°46' W 118°16'0 0.0
2018-Feb-17 02:00N 33°46' W 118°16'0 0.0
2018-Feb-17 01:30N 33°46' W 118°16'0 0.0
2018-Feb-17 01:00N 33°46' W 118°16'0 0.0
2018-Feb-17 00:30N 33°46' W 118°16'0 0.0
2018-Feb-17 00:00N 33°46' W 118°16'0 0.0
2018-Feb-16 23:30N 33°46' W 118°16'0 0.0
2018-Feb-16 23:00N 33°46' W 118°16'0 0.0
2018-Feb-16 22:30N 33°46' W 118°16'0 0.0
2018-Feb-16 22:00N 33°46' W 118°16'0 0.0
2018-Feb-16 21:30N 33°46' W 118°16'0 0.0
2018-Feb-16 21:00N 33°46' W 118°16'0 0.0
2018-Feb-16 20:30N 33°46' W 118°16'0 0.0
2018-Feb-16 20:01N 33°46' W 118°16'0 0.0
2018-Feb-16 19:30N 33°46' W 118°16'0 0.0
2018-Feb-16 19:00N 33°46' W 118°16'0 0.0
2018-Feb-16 18:31N 33°46' W 118°16'0 0.0
2018-Feb-16 18:00N 33°46' W 118°16'0 0.0
2018-Feb-16 17:30N 33°46' W 118°16'0 0.0
2018-Feb-16 17:00N 33°46' W 118°16'0 0.0
2018-Feb-16 16:30N 33°46' W 118°16'0 0.0
2018-Feb-16 16:00N 33°46' W 118°16'0 0.0
2018-Feb-16 15:30N 33°46' W 118°16'0 0.0
2018-Feb-16 15:00N 33°46' W 118°16'0 0.0
2018-Feb-16 14:30N 33°46' W 118°16'0 0.0
2018-Feb-16 14:00N 33°46' W 118°16'0 0.0
2018-Feb-16 13:31N 33°46' W 118°16'0 0.0
2018-Feb-16 13:00N 33°46' W 118°16'0 0.0
2018-Feb-16 12:30N 33°46' W 118°16'0 0.0
2018-Feb-16 12:00N 33°46' W 118°16'0 0.0
2018-Feb-16 11:30N 33°46' W 118°16'0 0.0
2018-Feb-16 11:00N 33°46' W 118°16'0 0.0
2018-Feb-16 10:30N 33°46' W 118°16'0 0.0
2018-Feb-16 10:00N 33°46' W 118°16'0 0.0
2018-Feb-16 09:30N 33°46' W 118°16'0 0.0
2018-Feb-16 09:00N 33°46' W 118°16'0 0.0
2018-Feb-16 08:30N 33°46' W 118°16'0 0.0
2018-Feb-16 08:00N 33°46' W 118°16'0 0.0
2018-Feb-16 07:30N 33°46' W 118°16'0 0.0
2018-Feb-16 07:00N 33°46' W 118°16'0 0.0
2018-Feb-16 06:30N 33°46' W 118°16'0 0.0
2018-Feb-16 06:00N 33°46' W 118°16'0 0.0
2018-Feb-16 05:30N 33°46' W 118°16'0 0.0
2018-Feb-16 05:00N 33°46' W 118°16'0 0.0
2018-Feb-16 04:30N 33°46' W 118°16'0 0.0
2018-Feb-16 04:00N 33°46' W 118°16'0 0.0
2018-Feb-16 03:30N 33°46' W 118°16'0 0.0
2018-Feb-16 03:00N 33°46' W 118°16'0 0.0
2018-Feb-16 02:30N 33°46' W 118°16'0 0.0
2018-Feb-16 02:00N 33°46' W 118°16'0 0.0
2018-Feb-16 01:30N 33°46' W 118°16'0 0.0
2018-Feb-16 01:00N 33°46' W 118°16'0 0.0
2018-Feb-16 00:30N 33°46' W 118°16'0 0.0
2018-Feb-16 00:00N 33°46' W 118°16'0 0.0
2018-Feb-15 23:29N 33°46' W 118°16'0 0.0
2018-Feb-15 23:00N 33°46' W 118°16'0 0.0
2018-Feb-15 22:30N 33°46' W 118°16'0 0.0
2018-Feb-15 22:00N 33°46' W 118°16'0 0.0
2018-Feb-15 21:30N 33°46' W 118°16'0 0.0
2018-Feb-15 21:00N 33°46' W 118°16'0 0.0
2018-Feb-15 20:30N 33°46' W 118°16'0 0.1
2018-Feb-15 20:00N 33°46' W 118°16'0 0.8
2018-Feb-15 19:30N 33°45' W 118°16'2 4.4
2018-Feb-15 19:00N 33°43' W 118°16'3 6.6
2018-Feb-15 18:30N 33°43' W 118°12'0 0.1
2018-Feb-15 18:00N 33°43' W 118°12'0 0.1
2018-Feb-15 17:30N 33°43' W 118°12'0 0.0
2018-Feb-15 17:00N 33°43' W 118°12'0 0.0
2018-Feb-15 16:30N 33°43' W 118°12'0 0.0
2018-Feb-15 16:00N 33°43' W 118°12'0 0.0
2018-Feb-15 15:30N 33°43' W 118°12'0 0.0
2018-Feb-15 15:00N 33°43' W 118°12'0 0.0
2018-Feb-15 14:30N 33°43' W 118°12'0 0.0
2018-Feb-15 12:57N 33°43' W 118°12'0 0.1
2018-Feb-15 10:52N 33°43' W 118°12'0 0.0
2018-Feb-15 10:30N 33°43' W 118°12'0 0.1
2018-Feb-15 09:33N 33°43' W 118°12'0 0.0
2018-Feb-15 09:28N 33°43' W 118°12'0 0.0
2018-Feb-15 09:00N 33°43' W 118°12'0 0.1
2018-Feb-15 08:30N 33°43' W 118°12'0 0.0
2018-Feb-15 07:47N 33°43' W 118°12'0 0.2
2018-Feb-15 07:27N 33°43' W 118°12'0 0.1
2018-Feb-15 06:24N 33°43' W 118°12'0 0.1
2018-Feb-15 05:23N 33°43' W 118°12'0 0.1
2018-Feb-15 05:00N 33°43' W 118°12'0 0.1
2018-Feb-15 04:30N 33°43' W 118°12'0 0.0
2018-Feb-15 02:56N 33°43' W 118°12'0 0.0
2018-Feb-15 02:19N 33°43' W 118°12'0 0.1
2018-Feb-15 01:58N 33°43' W 118°12'0 0.0
2018-Feb-15 01:28N 33°43' W 118°12'0 0.0
2018-Feb-15 01:00N 33°43' W 118°12'0 0.0
2018-Feb-15 00:30N 33°43' W 118°12'0 0.0
2018-Feb-15 00:00N 33°43' W 118°12'0 0.0
2018-Feb-14 23:30N 33°43' W 118°12'0 0.1
2018-Feb-14 23:00N 33°43' W 118°12'0 0.0
2018-Feb-14 22:30N 33°43' W 118°12'0 0.0
2018-Feb-14 22:00N 33°43' W 118°12'0 0.1
2018-Feb-14 21:27N 33°43' W 118°12'0 0.0
2018-Feb-14 21:00N 33°43' W 118°12'0 0.0
2018-Feb-14 20:29N 33°43' W 118°12'0 0.0
2018-Feb-14 20:00N 33°43' W 118°12'0 0.0
2018-Feb-14 19:30N 33°43' W 118°12'0 0.0
2018-Feb-14 19:00N 33°43' W 118°12'0 0.0
2018-Feb-14 18:30N 33°43' W 118°12'0 0.1
2018-Feb-14 17:59N 33°43' W 118°12'0 0.0
2018-Feb-14 17:30N 33°43' W 118°12'0 0.1
2018-Feb-14 17:00N 33°43' W 118°12'0 0.1
2018-Feb-14 16:29N 33°43' W 118°12'0 0.1
2018-Feb-14 16:00N 33°43' W 118°12'0 0.0
2018-Feb-14 15:30N 33°43' W 118°12'0 0.1
2018-Feb-14 15:00N 33°43' W 118°12'0 0.0
2018-Feb-14 13:24N 33°43' W 118°12'0 0.0
2018-Feb-14 11:57N 33°43' W 118°12'0 0.1
2018-Feb-14 11:30N 33°43' W 118°12'0 0.0
2018-Feb-14 11:00N 33°43' W 118°12'0 0.1
2018-Feb-14 10:30N 33°43' W 118°12'0 0.0
2018-Feb-14 09:34N 33°43' W 118°12'0 0.1
2018-Feb-14 08:29N 33°43' W 118°12'0 0.1
2018-Feb-14 07:54N 33°43' W 118°12'4 8.7
2018-Feb-14 07:29N 33°39' W 118°13'20 8.5
2018-Feb-14 05:11N 33°36' W 118°37'5 8.7
2018-Feb-14 04:34N 33°36' W 118°43'1 8.6
2018-Feb-14 04:25N 33°36' W 118°45'4 8.7
2018-Feb-14 04:00N 33°37' W 118°49'4 8.6
2018-Feb-14 03:30N 33°37' W 118°54'4 8.7
2018-Feb-14 03:00N 33°38' W 118°59'4 8.4
2018-Feb-14 02:30N 33°38' W 119°04'4 8.2
2018-Feb-14 01:58N 33°39' W 119°09'3 7.0
2018-Feb-14 01:30N 33°39' W 119°13'4 8.3
2018-Feb-14 01:00N 33°39' W 119°18'4 8.4
2018-Feb-14 00:30N 33°39' W 119°23'4 8.3
2018-Feb-14 00:00N 33°40' W 119°28'4 8.3
2018-Feb-13 23:30N 33°40' W 119°33'4 8.1
2018-Feb-13 23:00N 33°40' W 119°38'4 8.1
2018-Feb-13 22:30N 33°41' W 119°43'4 8.3
2018-Feb-13 22:00N 33°41' W 119°48'4 8.2
2018-Feb-13 21:30N 33°42' W 119°53'4 7.9
2018-Feb-13 21:00N 33°42' W 119°57'28 8.1
2018-Feb-13 17:33N 33°45' W 120°31'1 7.6
2018-Feb-13 17:28N 33°45' W 120°32'4 8.1
2018-Feb-13 17:00N 33°45' W 120°36'4 8.2
2018-Feb-13 16:30N 33°45' W 120°41'4 8.4
2018-Feb-13 16:00N 33°46' W 120°46'4 7.2
2018-Feb-13 15:30N 33°46' W 120°50'3 6.9
2018-Feb-13 15:00N 33°48' W 120°54'4 7.3
2018-Feb-13 14:30N 33°50' W 120°58'5 9.1
2018-Feb-13 14:00N 33°53' W 121°02'5 9.3
2018-Feb-13 13:30N 33°56' W 121°06'5 9.4
2018-Feb-13 13:00N 33°59' W 121°11'5 9.3
2018-Feb-13 12:27N 34°01' W 121°16'4 9.2
2018-Feb-13 12:00N 34°04' W 121°20'5 9.3
2018-Feb-13 11:30N 34°07' W 121°25'5 9.3
2018-Feb-13 10:59N 34°09' W 121°30'5 9.5
2018-Feb-13 10:30N 34°12' W 121°34'19 9.5
2018-Feb-13 08:28N 34°25' W 121°51'193 9.8
2018-Feb-12 12:53N 37°28' W 123°08'411.2
2018-Feb-12 12:29N 37°32' W 123°06'510.3
2018-Feb-12 12:00N 37°35' W 123°01'510.8
2018-Feb-12 11:30N 37°38' W 122°56'510.7
2018-Feb-12 11:00N 37°41' W 122°50'510.3
2018-Feb-12 10:30N 37°43' W 122°44'5 9.2
2018-Feb-12 10:00N 37°46' W 122°39'611.6
2018-Feb-12 09:28N 37°48' W 122°32'511.4
2018-Feb-12 09:00N 37°50' W 122°26'611.1
2018-Feb-12 08:30N 37°46' W 122°21'1 1.2
2018-Feb-12 08:01N 37°46' W 122°20'0 0.3
2018-Feb-12 07:30N 37°46' W 122°20'0 0.2
2018-Feb-12 07:00N 37°45' W 122°20'0 0.1
2018-Feb-12 06:31N 37°45' W 122°20'0 0.0
2018-Feb-12 06:00N 37°45' W 122°20'0 0.0
2018-Feb-12 05:30N 37°45' W 122°20'0 0.0
2018-Feb-12 05:00N 37°45' W 122°20'0 0.0
2018-Feb-12 04:30N 37°45' W 122°20'0 0.0
2018-Feb-12 04:00N 37°45' W 122°20'0 0.0
2018-Feb-12 03:31N 37°45' W 122°20'0 0.0
2018-Feb-12 03:00N 37°45' W 122°20'0 0.0
2018-Feb-12 02:30N 37°45' W 122°20'0 0.0
2018-Feb-12 02:01N 37°45' W 122°20'0 0.1
2018-Feb-12 01:31N 37°45' W 122°20'0 0.0
2018-Feb-12 01:00N 37°45' W 122°20'0 0.1
2018-Feb-12 00:30N 37°46' W 122°20'0 0.0
2018-Feb-12 00:01N 37°46' W 122°20'0 0.2
2018-Feb-11 23:30N 37°46' W 122°20'0 0.1
2018-Feb-11 23:00N 37°46' W 122°20'0 0.1
2018-Feb-11 22:30N 37°46' W 122°20'3 6.6
2018-Feb-11 22:00N 37°48' W 122°23'510.5
2018-Feb-11 21:30N 37°53' W 122°26'612.0
2018-Feb-11 21:00N 37°59' W 122°26'611.6
2018-Feb-11 20:30N 38°03' W 122°20'4 8.8
2018-Feb-11 20:00N 38°04' W 122°15'6 0.2
2018-Feb-10 11:39N 38°02' W 122°08'0 2.5
2018-Feb-10 11:30N 38°02' W 122°08'  
Track history (hours):
 
Tides and Currents Weather Stations Pressure Air Temp Water Temp Dewpoint Dewpoint Depression Visibility Wind Speed Wind Dir Waves Ship Positions

Sea Reliance

Owner: Intrepid Ship Management, Seattle, WA. More information available from US FCC via Universal Licensing System and Coast Guard Vessel Documentation Center.

Last reported at 2018-Feb-19 12:01 UTC. Time now 2018-Feb-19 12:08 UTC.
Position N 33°41' W 119°04'.

Type: Ship. MMSI: 369567000.

Date/timePositionNaut miles runAvg speedWind from/ knotsBaromVisibWave heightAir tempDewpointWater temp
2018-Feb-19 12:01N 33°41' W 119°04'4 8.6
2018-Feb-19 11:30N 33°41' W 118°59'4 8.4
2018-Feb-19 11:01N 33°40' W 118°54'4 8.6
2018-Feb-19 10:30N 33°40' W 118°49'5 8.9
2018-Feb-19 10:00N 33°39' W 118°44'24 9.5
2018-Feb-19 07:31N 33°40' W 118°15'3 6.9
2018-Feb-19 07:00N 33°44' W 118°16'2 3.1
2018-Feb-19 06:30N 33°45' W 118°17'0 0.0
2018-Feb-19 06:00N 33°45' W 118°17'0 0.0
2018-Feb-19 05:30N 33°45' W 118°17'0 0.0
2018-Feb-19 04:59N 33°45' W 118°17'0 0.0
2018-Feb-19 04:29N 33°45' W 118°17'0 0.0
2018-Feb-19 03:59N 33°45' W 118°17'0 0.0
2018-Feb-19 03:26N 33°45' W 118°17'0 0.0
2018-Feb-19 02:59N 33°45' W 118°17'0 0.0
2018-Feb-19 02:26N 33°45' W 118°17'0 0.0
2018-Feb-19 01:59N 33°45' W 118°17'0 0.0
2018-Feb-19 01:29N 33°45' W 118°17'0 0.0
2018-Feb-19 00:59N 33°45' W 118°17'0 0.0
2018-Feb-19 00:29N 33°45' W 118°17'0 0.0
2018-Feb-18 23:59N 33°45' W 118°17'0 0.0
2018-Feb-18 23:29N 33°45' W 118°17'0 0.0
2018-Feb-18 22:59N 33°45' W 118°17'0 0.0
2018-Feb-18 22:29N 33°45' W 118°17'0 0.0
2018-Feb-18 21:59N 33°45' W 118°17'0 0.0
2018-Feb-18 21:29N 33°45' W 118°17'0 0.0
2018-Feb-18 20:59N 33°45' W 118°17'0 0.0
2018-Feb-18 20:29N 33°45' W 118°17'0 0.0
2018-Feb-18 19:59N 33°45' W 118°17'0 0.0
2018-Feb-18 19:29N 33°45' W 118°17'0 0.0
2018-Feb-18 18:59N 33°45' W 118°17'0 0.0
2018-Feb-18 18:29N 33°45' W 118°17'0 0.0
2018-Feb-18 17:59N 33°45' W 118°17'0 0.0
2018-Feb-18 17:29N 33°45' W 118°17'0 0.0
2018-Feb-18 16:59N 33°45' W 118°17'0 0.0
2018-Feb-18 16:29N 33°45' W 118°17'0 0.0
2018-Feb-18 15:59N 33°45' W 118°17'0 0.0
2018-Feb-18 15:29N 33°45' W 118°17'0 0.0
2018-Feb-18 14:59N 33°45' W 118°17'0 0.0
2018-Feb-18 14:29N 33°45' W 118°17'0 0.0
2018-Feb-18 13:59N 33°45' W 118°17'0 0.0
2018-Feb-18 13:29N 33°45' W 118°17'0 0.0
2018-Feb-18 12:59N 33°45' W 118°17'0 0.0
2018-Feb-18 12:29N 33°45' W 118°17'0 0.0
2018-Feb-18 11:59N 33°45' W 118°17'0 0.0
2018-Feb-18 11:29N 33°45' W 118°17'0 0.0
2018-Feb-18 10:56N 33°45' W 118°17'0 0.0
2018-Feb-18 10:29N 33°45' W 118°17'0 0.0
2018-Feb-18 09:59N 33°45' W 118°17'0 0.0
2018-Feb-18 09:29N 33°45' W 118°17'0 0.0
2018-Feb-18 08:59N 33°45' W 118°17'0 0.0
2018-Feb-18 08:29N 33°45' W 118°17'0 0.0
2018-Feb-18 07:59N 33°45' W 118°17'0 0.0
2018-Feb-18 07:29N 33°45' W 118°17'0 0.0
2018-Feb-18 06:59N 33°45' W 118°17'0 0.0
2018-Feb-18 06:29N 33°45' W 118°17'0 0.0
2018-Feb-18 05:59N 33°45' W 118°17'0 0.0
2018-Feb-18 05:28N 33°45' W 118°17'0 0.0
2018-Feb-18 04:55N 33°45' W 118°17'0 0.0
2018-Feb-18 04:28N 33°45' W 118°17'0 0.0
2018-Feb-18 03:58N 33°45' W 118°17'0 0.1
2018-Feb-18 03:25N 33°45' W 118°17'1 1.5
2018-Feb-18 02:56N 33°45' W 118°16'2 4.0
2018-Feb-18 02:30N 33°43' W 118°16'2 3.7
2018-Feb-18 02:00N 33°43' W 118°14'0 0.0
2018-Feb-18 01:30N 33°43' W 118°14'0 0.0
2018-Feb-18 01:00N 33°43' W 118°14'0 0.0
2018-Feb-18 00:30N 33°43' W 118°14'0 0.0
2018-Feb-18 00:00N 33°43' W 118°14'0 0.0
2018-Feb-17 23:30N 33°43' W 118°14'0 0.1
2018-Feb-17 22:57N 33°43' W 118°14'0 0.0
2018-Feb-17 22:30N 33°43' W 118°14'0 0.0
2018-Feb-17 22:00N 33°43' W 118°14'0 0.1
2018-Feb-17 21:21N 33°43' W 118°14'0 0.1
2018-Feb-17 20:57N 33°43' W 118°14'0 0.1
2018-Feb-17 20:30N 33°43' W 118°14'0 0.1
2018-Feb-17 20:00N 33°43' W 118°14'0 0.1
2018-Feb-17 19:30N 33°43' W 118°14'0 0.1
2018-Feb-17 19:00N 33°43' W 118°14'0 0.0
2018-Feb-17 18:27N 33°43' W 118°14'0 0.0
2018-Feb-17 18:00N 33°43' W 118°14'0 0.0
2018-Feb-17 17:27N 33°43' W 118°14'0 0.0
2018-Feb-17 17:00N 33°43' W 118°14'0 0.0
2018-Feb-17 16:30N 33°43' W 118°14'0 0.0
2018-Feb-17 16:00N 33°43' W 118°14'0 0.1
2018-Feb-17 15:30N 33°43' W 118°14'0 0.0
2018-Feb-17 15:00N 33°43' W 118°14'0 0.1
2018-Feb-17 14:30N 33°43' W 118°14'0 0.0
2018-Feb-17 13:57N 33°43' W 118°14'0 0.0
2018-Feb-17 13:27N 33°43' W 118°14'0 0.0
2018-Feb-17 13:00N 33°43' W 118°14'0 0.0
2018-Feb-17 12:30N 33°43' W 118°14'0 0.0
2018-Feb-17 12:00N 33°43' W 118°14'0 0.0
2018-Feb-17 11:30N 33°43' W 118°14'0 0.0
2018-Feb-17 11:00N 33°43' W 118°14'0 0.0
2018-Feb-17 10:30N 33°43' W 118°14'0 0.0
2018-Feb-17 09:57N 33°43' W 118°14'0 0.0
2018-Feb-17 09:29N 33°43' W 118°14'0 0.0
2018-Feb-17 08:47N 33°43' W 118°14'0 0.1
2018-Feb-17 08:23N 33°43' W 118°14'0 0.1
2018-Feb-17 07:47N 33°43' W 118°14'0 0.0
2018-Feb-17 07:29N 33°43' W 118°14'0 0.1
2018-Feb-17 06:50N 33°43' W 118°14'1 2.5
2018-Feb-17 06:29N 33°43' W 118°15'3 5.4
2018-Feb-17 06:00N 33°45' W 118°16'1 1.2
2018-Feb-17 05:30N 33°46' W 118°16'0 0.0
2018-Feb-17 05:00N 33°46' W 118°16'0 0.0
2018-Feb-17 04:30N 33°46' W 118°16'0 0.0
2018-Feb-17 04:00N 33°46' W 118°16'0 0.0
2018-Feb-17 03:30N 33°46' W 118°16'0 0.0
2018-Feb-17 03:00N 33°46' W 118°16'0 0.0
2018-Feb-17 02:30N 33°46' W 118°16'0 0.0
2018-Feb-17 02:00N 33°46' W 118°16'0 0.0
2018-Feb-17 01:30N 33°46' W 118°16'0 0.0
2018-Feb-17 01:00N 33°46' W 118°16'0 0.0
2018-Feb-17 00:30N 33°46' W 118°16'0 0.0
2018-Feb-17 00:00N 33°46' W 118°16'0 0.0
2018-Feb-16 23:30N 33°46' W 118°16'0 0.0
2018-Feb-16 23:00N 33°46' W 118°16'0 0.0
2018-Feb-16 22:30N 33°46' W 118°16'0 0.0
2018-Feb-16 22:00N 33°46' W 118°16'0 0.0
2018-Feb-16 21:30N 33°46' W 118°16'0 0.0
2018-Feb-16 21:00N 33°46' W 118°16'0 0.0
2018-Feb-16 20:30N 33°46' W 118°16'0 0.0
2018-Feb-16 20:01N 33°46' W 118°16'0 0.0
2018-Feb-16 19:30N 33°46' W 118°16'0 0.0
2018-Feb-16 19:00N 33°46' W 118°16'0 0.0
2018-Feb-16 18:31N 33°46' W 118°16'0 0.0
2018-Feb-16 18:00N 33°46' W 118°16'0 0.0
2018-Feb-16 17:30N 33°46' W 118°16'0 0.0
2018-Feb-16 17:00N 33°46' W 118°16'0 0.0
2018-Feb-16 16:30N 33°46' W 118°16'0 0.0
2018-Feb-16 16:00N 33°46' W 118°16'0 0.0
2018-Feb-16 15:30N 33°46' W 118°16'0 0.0
2018-Feb-16 15:00N 33°46' W 118°16'0 0.0
2018-Feb-16 14:30N 33°46' W 118°16'0 0.0
2018-Feb-16 14:00N 33°46' W 118°16'0 0.0
2018-Feb-16 13:31N 33°46' W 118°16'0 0.0
2018-Feb-16 13:00N 33°46' W 118°16'0 0.0
2018-Feb-16 12:30N 33°46' W 118°16'0 0.0
2018-Feb-16 12:00N 33°46' W 118°16'0 0.0
2018-Feb-16 11:30N 33°46' W 118°16'0 0.0
2018-Feb-16 11:00N 33°46' W 118°16'0 0.0
2018-Feb-16 10:30N 33°46' W 118°16'0 0.0
2018-Feb-16 10:00N 33°46' W 118°16'0 0.0
2018-Feb-16 09:30N 33°46' W 118°16'0 0.0
2018-Feb-16 09:00N 33°46' W 118°16'0 0.0
2018-Feb-16 08:30N 33°46' W 118°16'0 0.0
2018-Feb-16 08:00N 33°46' W 118°16'0 0.0
2018-Feb-16 07:30N 33°46' W 118°16'0 0.0
2018-Feb-16 07:00N 33°46' W 118°16'0 0.0
2018-Feb-16 06:30N 33°46' W 118°16'0 0.0
2018-Feb-16 06:00N 33°46' W 118°16'0 0.0
2018-Feb-16 05:30N 33°46' W 118°16'0 0.0
2018-Feb-16 05:00N 33°46' W 118°16'0 0.0
2018-Feb-16 04:30N 33°46' W 118°16'0 0.0
2018-Feb-16 04:00N 33°46' W 118°16'0 0.0
2018-Feb-16 03:30N 33°46' W 118°16'0 0.0
2018-Feb-16 03:00N 33°46' W 118°16'0 0.0
2018-Feb-16 02:30N 33°46' W 118°16'0 0.0
2018-Feb-16 02:00N 33°46' W 118°16'0 0.0
2018-Feb-16 01:30N 33°46' W 118°16'0 0.0
2018-Feb-16 01:00N 33°46' W 118°16'0 0.0
2018-Feb-16 00:30N 33°46' W 118°16'0 0.0
2018-Feb-16 00:00N 33°46' W 118°16'0 0.0
2018-Feb-15 23:29N 33°46' W 118°16'0 0.0
2018-Feb-15 23:00N 33°46' W 118°16'0 0.0
2018-Feb-15 22:30N 33°46' W 118°16'0 0.0
2018-Feb-15 22:00N 33°46' W 118°16'0 0.0
2018-Feb-15 21:30N 33°46' W 118°16'0 0.0
2018-Feb-15 21:00N 33°46' W 118°16'0 0.0
2018-Feb-15 20:30N 33°46' W 118°16'0 0.1
2018-Feb-15 20:00N 33°46' W 118°16'0 0.8
2018-Feb-15 19:30N 33°45' W 118°16'2 4.4
2018-Feb-15 19:00N 33°43' W 118°16'3 6.6
2018-Feb-15 18:30N 33°43' W 118°12'0 0.1
2018-Feb-15 18:00N 33°43' W 118°12'0 0.1
2018-Feb-15 17:30N 33°43' W 118°12'0 0.0
2018-Feb-15 17:00N 33°43' W 118°12'0 0.0
2018-Feb-15 16:30N 33°43' W 118°12'0 0.0
2018-Feb-15 16:00N 33°43' W 118°12'0 0.0
2018-Feb-15 15:30N 33°43' W 118°12'0 0.0
2018-Feb-15 15:00N 33°43' W 118°12'0 0.0
2018-Feb-15 14:30N 33°43' W 118°12'0 0.0
2018-Feb-15 12:57N 33°43' W 118°12'0 0.1
2018-Feb-15 10:52N 33°43' W 118°12'0 0.0
2018-Feb-15 10:30N 33°43' W 118°12'0 0.1
2018-Feb-15 09:33N 33°43' W 118°12'0 0.0
2018-Feb-15 09:28N 33°43' W 118°12'0 0.0
2018-Feb-15 09:00N 33°43' W 118°12'0 0.1
2018-Feb-15 08:30N 33°43' W 118°12'0 0.0
2018-Feb-15 07:47N 33°43' W 118°12'0 0.2
2018-Feb-15 07:27N 33°43' W 118°12'0 0.1
2018-Feb-15 06:24N 33°43' W 118°12'0 0.1
2018-Feb-15 05:23N 33°43' W 118°12'0 0.1
2018-Feb-15 05:00N 33°43' W 118°12'0 0.1
2018-Feb-15 04:30N 33°43' W 118°12'0 0.0
2018-Feb-15 02:56N 33°43' W 118°12'0 0.0
2018-Feb-15 02:19N 33°43' W 118°12'0 0.1
2018-Feb-15 01:58N 33°43' W 118°12'0 0.0
2018-Feb-15 01:28N 33°43' W 118°12'0 0.0
2018-Feb-15 01:00N 33°43' W 118°12'0 0.0
2018-Feb-15 00:30N 33°43' W 118°12'0 0.0
2018-Feb-15 00:00N 33°43' W 118°12'0 0.0
2018-Feb-14 23:30N 33°43' W 118°12'0 0.1
2018-Feb-14 23:00N 33°43' W 118°12'0 0.0
2018-Feb-14 22:30N 33°43' W 118°12'0 0.0
2018-Feb-14 22:00N 33°43' W 118°12'0 0.1
2018-Feb-14 21:27N 33°43' W 118°12'0 0.0
2018-Feb-14 21:00N 33°43' W 118°12'0 0.0
2018-Feb-14 20:29N 33°43' W 118°12'0 0.0
2018-Feb-14 20:00N 33°43' W 118°12'0 0.0
2018-Feb-14 19:30N 33°43' W 118°12'0 0.0
2018-Feb-14 19:00N 33°43' W 118°12'0 0.0
2018-Feb-14 18:30N 33°43' W 118°12'0 0.1
2018-Feb-14 17:59N 33°43' W 118°12'0 0.0
2018-Feb-14 17:30N 33°43' W 118°12'0 0.1
2018-Feb-14 17:00N 33°43' W 118°12'0 0.1
2018-Feb-14 16:29N 33°43' W 118°12'0 0.1
2018-Feb-14 16:00N 33°43' W 118°12'0 0.0
2018-Feb-14 15:30N 33°43' W 118°12'0 0.1
2018-Feb-14 15:00N 33°43' W 118°12'0 0.0
2018-Feb-14 13:24N 33°43' W 118°12'0 0.0
2018-Feb-14 11:57N 33°43' W 118°12'0 0.1
2018-Feb-14 11:30N 33°43' W 118°12'0 0.0
2018-Feb-14 11:00N 33°43' W 118°12'0 0.1
2018-Feb-14 10:30N 33°43' W 118°12'0 0.0
2018-Feb-14 09:34N 33°43' W 118°12'0 0.1
2018-Feb-14 08:29N 33°43' W 118°12'0 0.1
2018-Feb-14 07:54N 33°43' W 118°12'4 8.7
2018-Feb-14 07:29N 33°39' W 118°13'20 8.5
2018-Feb-14 05:11N 33°36' W 118°37'5 8.7
2018-Feb-14 04:34N 33°36' W 118°43'1 8.6
2018-Feb-14 04:25N 33°36' W 118°45'4 8.7
2018-Feb-14 04:00N 33°37' W 118°49'4 8.6
2018-Feb-14 03:30N 33°37' W 118°54'4 8.7
2018-Feb-14 03:00N 33°38' W 118°59'4 8.4
2018-Feb-14 02:30N 33°38' W 119°04'4 8.2
2018-Feb-14 01:58N 33°39' W 119°09'3 7.0
2018-Feb-14 01:30N 33°39' W 119°13'4 8.3
2018-Feb-14 01:00N 33°39' W 119°18'4 8.4
2018-Feb-14 00:30N 33°39' W 119°23'4 8.3
2018-Feb-14 00:00N 33°40' W 119°28'4 8.3
2018-Feb-13 23:30N 33°40' W 119°33'4 8.1
2018-Feb-13 23:00N 33°40' W 119°38'4 8.1
2018-Feb-13 22:30N 33°41' W 119°43'4 8.3
2018-Feb-13 22:00N 33°41' W 119°48'4 8.2
2018-Feb-13 21:30N 33°42' W 119°53'4 7.9
2018-Feb-13 21:00N 33°42' W 119°57'28 8.1
2018-Feb-13 17:33N 33°45' W 120°31'1 7.6
2018-Feb-13 17:28N 33°45' W 120°32'4 8.1
2018-Feb-13 17:00N 33°45' W 120°36'4 8.2
2018-Feb-13 16:30N 33°45' W 120°41'4 8.4
2018-Feb-13 16:00N 33°46' W 120°46'4 7.2
2018-Feb-13 15:30N 33°46' W 120°50'3 6.9
2018-Feb-13 15:00N 33°48' W 120°54'4 7.3
2018-Feb-13 14:30N 33°50' W 120°58'5 9.1
2018-Feb-13 14:00N 33°53' W 121°02'5 9.3
2018-Feb-13 13:30N 33°56' W 121°06'5 9.4
2018-Feb-13 13:00N 33°59' W 121°11'5 9.3
2018-Feb-13 12:27N 34°01' W 121°16'4 9.2
2018-Feb-13 12:00N 34°04' W 121°20'5 9.3
2018-Feb-13 11:30N 34°07' W 121°25'5 9.3
2018-Feb-13 10:59N 34°09' W 121°30'5 9.5
2018-Feb-13 10:30N 34°12' W 121°34'19 9.5
2018-Feb-13 08:28N 34°25' W 121°51'193 9.8
2018-Feb-12 12:53N 37°28' W 123°08'411.2
2018-Feb-12 12:29N 37°32' W 123°06'510.3
2018-Feb-12 12:00N 37°35' W 123°01'510.8
2018-Feb-12 11:30N 37°38' W 122°56'510.7
2018-Feb-12 11:00N 37°41' W 122°50'510.3
2018-Feb-12 10:30N 37°43' W 122°44'5 9.2
2018-Feb-12 10:00N 37°46' W 122°39'611.6
2018-Feb-12 09:28N 37°48' W 122°32'511.4
2018-Feb-12 09:00N 37°50' W 122°26'611.1
2018-Feb-12 08:30N 37°46' W 122°21'1 1.2
2018-Feb-12 08:01N 37°46' W 122°20'0 0.3
2018-Feb-12 07:30N 37°46' W 122°20'0 0.2
2018-Feb-12 07:00N 37°45' W 122°20'0 0.1
2018-Feb-12 06:31N 37°45' W 122°20'0 0.0
2018-Feb-12 06:00N 37°45' W 122°20'0 0.0
2018-Feb-12 05:30N 37°45' W 122°20'0 0.0
2018-Feb-12 05:00N 37°45' W 122°20'0 0.0
2018-Feb-12 04:30N 37°45' W 122°20'0 0.0
2018-Feb-12 04:00N 37°45' W 122°20'0 0.0
2018-Feb-12 03:31N 37°45' W 122°20'0 0.0
2018-Feb-12 03:00N 37°45' W 122°20'0 0.0
2018-Feb-12 02:30N 37°45' W 122°20'0 0.0
2018-Feb-12 02:01N 37°45' W 122°20'0 0.1
2018-Feb-12 01:31N 37°45' W 122°20'0 0.0
2018-Feb-12 01:00N 37°45' W 122°20'0 0.1
2018-Feb-12 00:30N 37°46' W 122°20'0 0.0
2018-Feb-12 00:01N 37°46' W 122°20'0 0.2
2018-Feb-11 23:30N 37°46' W 122°20'0 0.1
2018-Feb-11 23:00N 37°46' W 122°20'0 0.1
2018-Feb-11 22:30N 37°46' W 122°20'3 6.6
2018-Feb-11 22:00N 37°48' W 122°23'510.5
2018-Feb-11 21:30N 37°53' W 122°26'612.0
2018-Feb-11 21:00N 37°59' W 122°26'611.6
2018-Feb-11 20:30N 38°03' W 122°20'4 8.8
2018-Feb-11 20:00N 38°04' W 122°15'6 0.2
2018-Feb-10 11:39N 38°02' W 122°08'0 2.5
2018-Feb-10 11:30N 38°02' W 122°08'  

Dump ship's entire track history